DW0207 Weather Reports


Display with metric or nautical units.
time (UTC)temp
F
wind
direction
speed
MPH
gust
MPH
rain 1hr
in
rain 24hr
in
rain mn
in
humidity
%
barometer
mb
20180421072254 32 270 0.0 4.0 0.00 0.11 0.00 63 1010.7
20180421070758 32 270 3.0 8.0 0.00 0.11 0.00 63 1010.6
20180421065251 33 269 2.0 7.0 0.00 0.11 0.00 61 1010.7
20180421063743 34 270 0.0 6.0 0.00 0.11 0.00 60 1010.5
20180421062244 36 270 0.0 3.0 0.00 0.11 0.00 57 1010.8
20180421060737 36 270 0.0 3.0 0.00 0.11 0.00 54 1010.6
20180421055235 36 270 4.0 9.0 0.00 0.11 0.11 55 1010.5
20180421053734 37 275 3.0 8.0 0.00 0.11 0.11 55 1010.3
20180421052239 37 275 0.0 3.0 0.00 0.11 0.11 53 1010.5
20180421050734 37 275 0.0 4.0 0.00 0.11 0.11 51 1010.4
20180421045234 37 276 3.0 8.0 0.00 0.11 0.11 51 1010.1
20180421043729 37 278 4.0 8.0 0.00 0.11 0.11 49 1009.9
20180421042229 38 280 0.0 5.0 0.00 0.11 0.11 48 1009.8
20180421040732 38 280 0.0 2.0 0.00 0.11 0.11 45 1009.8
20180421035228 39 280 2.0 7.0 0.00 0.11 0.11 43 1009.6
20180421033726 40 273 7.0 14.0 0.00 0.11 0.11 42 1009.7
20180421032226 39 257 5.0 9.0 0.00 0.11 0.11 43 1009.3
20180421030727 40 257 2.0 7.0 0.00 0.11 0.11 41 1009.2
20180421025222 40 257 4.0 12.0 0.00 0.11 0.11 40 1008.9
20180421023718 40 260 4.0 8.0 0.00 0.11 0.11 41 1008.5
20180421022216 40 260 3.0 9.0 0.00 0.11 0.11 40 1008.1
20180421020718 41 260 4.0 12.0 0.00 0.11 0.11 38 1007.7
20180421015212 41 261 4.0 10.0 0.00 0.11 0.11 35 1007.2
20180421013706 42 263 2.0 7.0 0.00 0.11 0.11 33 1006.8
20180421012204 42 263 2.0 10.0 0.00 0.11 0.11 31 1006.4
20180421010705 43 269 5.0 12.0 0.00 0.11 0.11 29 1006.2
20180421005207 46 275 6.0 13.0 0.00 0.11 0.11 27 1005.8
20180421003702 47 275 5.0 14.0 0.00 0.11 0.11 26 1005.4
20180421002206 48 315 7.0 16.0 0.00 0.11 0.11 25 1005.0
20180421000706 48 269 7.0 15.0 0.00 0.11 0.11 25 1004.7
20180420235204 50 268 6.0 15.0 0.00 0.11 0.11 24 1004.4
20180420233703 49 254 4.0 13.0 0.00 0.11 0.11 26 1004.2
20180420232200 46 225 6.0 18.0 0.00 0.11 0.11 28 1004.1
20180420230659 48 277 5.0 12.0 0.00 0.11 0.11 26 1003.9
20180420225202 49 276 9.0 19.0 0.00 0.11 0.11 24 1003.7
20180420223657 49 247 9.0 17.0 0.00 0.11 0.11 26 1003.6
20180420222156 49 296 5.0 11.0 0.00 0.11 0.11 30 1003.3
20180420220658 48 348 3.0 12.0 0.00 0.11 0.11 39 1003.2
20180420215152 45 294 1.0 9.0 0.00 0.11 0.11 48 1003.4
20180420213651 44 294 3.0 10.0 0.00 0.11 0.11 51 1003.7
20180420212151 44 286 1.0 9.0 0.00 0.11 0.11 59 1003.7
20180420210650 43 283 0.0 5.0 0.01 0.11 0.11 64 1003.9
20180420205148 41 284 1.0 7.0 0.01 0.11 0.11 68 1004.3
20180420203649 40 283 0.0 7.0 0.01 0.11 0.11 77 1004.7
20180420202149 38 280 0.0 4.0 0.01 0.11 0.11 80 1004.9
20180420200647 35 281 0.0 8.0 0.01 0.10 0.10 79 1005.1
20180420195147 35 281 1.0 15.0 0.02 0.10 0.10 82 1005.0
20180420193645 38 288 4.0 18.0 0.04 0.10 0.10 77 1004.5
20180420192146 39 156 4.0 8.0 0.06 0.10 0.10 79 1003.9
20180420190648 38 156 3.0 9.0 0.07 0.09 0.09 85 1003.7
20180420185149 37 155 4.0 12.0 0.06 0.08 0.08 88 1003.0
20180420183643 35 159 7.0 12.0 0.04 0.06 0.06 86 1002.7
20180420182141 35 159 7.0 18.0 0.02 0.04 0.04 89 1002.8
20180420180642 33 215 5.0 12.0 0.00 0.02 0.02 92 1002.4
20180420175137 31 249 0.0 4.0 0.00 0.02 0.02 91 1002.3
20180420173637 31 249 0.0 0.0 0.00 0.02 0.02 91 1002.9
20180420172134 31 249 0.0 0.0 0.00 0.02 0.02 90 1002.5
20180420170632 32 249 0.0 0.0 0.00 0.02 0.02 89 1002.7
20180420165129 33 249 0.0 0.0 0.01 0.02 0.02 90 1002.3
20180420163631 33 249 0.0 0.0 0.02 0.02 0.02 91 1002.4
20180420162129 33 249 0.0 4.0 0.02 0.02 0.02 90 1002.4
20180420160633 33 249 1.0 4.0 0.02 0.02 0.02 89 1002.2
20180420155128 34 249 0.0 2.0 0.01 0.01 0.01 89 1002.3
20180420153631 33 249 0.0 0.0 0.00 0.00 0.00 88 1002.4
20180420152126 33 249 0.0 0.0 0.00 0.00 0.00 85 1002.3
20180420150623 34 249 2.0 5.0 0.00 0.00 0.00 80 1002.8
20180420145122 36 249 3.0 8.0 0.00 0.00 0.00 76 1003.2
20180420143613 37 249 3.0 11.0 0.00 0.00 0.00 69 1002.7
20180420142117 39 248 5.0 13.0 0.00 0.00 0.00 64 1002.5
20180420140610 40 256 8.0 18.0 0.00 0.00 0.00 59 1002.3
20180420135204 44 257 10.0 21.0 0.00 0.00 0.00 52 1001.7
20180420133559 47 173 8.0 22.0 0.00 0.00 0.00 47 1000.3
20180420132106 47 128 12.0 19.0 0.00 0.00 0.00 48 1000.3
20180420130600 45 171 10.0 17.0 0.00 0.00 0.00 51 1000.5
20180420125102 44 152 10.0 16.0 0.00 0.00 0.00 52 1000.5
20180420123557 44 165 10.0 21.0 0.00 0.00 0.00 53 1000.1
20180420122052 44 159 10.0 18.0 0.00 0.00 0.00 52 1000.3
20180420120555 45 155 11.0 21.0 0.00 0.00 0.00 52 1000.4
20180420115054 45 182 10.0 19.0 0.00 0.00 0.00 51 1000.4
20180420113546 46 175 7.0 16.0 0.00 0.00 0.00 49 1000.3
20180420112047 47 168 8.0 22.0 0.00 0.00 0.00 49 1000.4
20180420110549 46 180 6.0 15.0 0.00 0.00 0.00 49 1001.0
20180420105043 45 173 8.0 19.0 0.00 0.00 0.00 50 1001.4
20180420103545 45 172 11.0 18.0 0.00 0.00 0.00 50 1001.6
20180420102047 46 158 8.0 19.0 0.00 0.00 0.00 49 1001.8
20180420100542 47 135 11.0 26.0 0.00 0.00 0.00 47 1001.9
20180420095043 45 151 13.0 20.0 0.00 0.00 0.00 47 1001.9
20180420093537 46 165 12.0 22.0 0.00 0.00 0.00 47 1002.1
20180420092033 46 172 10.0 19.0 0.00 0.00 0.00 48 1002.6
20180420090534 46 138 7.0 19.0 0.00 0.00 0.00 49 1002.9
20180420085028 46 144 10.0 23.0 0.00 0.00 0.00 49 1003.1
20180420083530 46 211 5.0 22.0 0.00 0.00 0.00 48 1003.3
20180420082023 46 140 10.0 23.0 0.00 0.00 0.00 46 1003.5
20180420080519 46 167 7.0 22.0 0.00 0.00 0.00 44 1004.1
20180420075017 46 190 7.0 15.0 0.00 0.00 0.00 42 1004.7
20180420073515 46 349 2.0 13.0 0.00 0.00 0.00 41 1004.8